Time;durP1;ratioP1;P1;durP2;ratioP2;P2;SDS_P1;SDS_P2;PMS_P1;PMS_P2;Temp;Humidity;BMP_temperature;BMP_pressure;BME280_temperature;BME280_humidity;BME280_pressure;Samples;Min_cycle;Max_cycle;Signal;HPM_P1;HPM_P2
2023/11/13 00:02:04;;;;;;;19.10;12.45;;;;;;;8.18;70.07;94799.31;5019954;28;20034;-77
2023/11/13 00:04:29;;;;;;;18.13;12.90;;;;;;;8.18;70.10;94796.59;5042491;28;20037;-77
2023/11/13 00:06:55;;;;;;;18.42;12.48;;;;;;;8.18;70.19;94782.91;5022713;28;20033;-77
2023/11/13 00:09:20;;;;;;;19.25;12.70;;;;;;;8.22;70.18;94791.81;5025592;28;20038;-77
2023/11/13 00:11:47;;;;;;;20.05;13.60;;;;;;;8.20;69.92;94798.91;5023696;28;20029;-77
2023/11/13 00:14:13;;;;;;;21.63;14.50;;;;;;;8.25;69.86;94812.09;5013684;28;20072;-77
2023/11/13 00:16:38;;;;;;;25.65;19.83;;;;;;;8.29;69.92;94822.97;5024583;28;20116;-77
2023/11/13 00:19:04;;;;;;;37.95;24.10;;;;;;;8.34;69.83;94825.22;5015548;28;20034;-77
2023/11/13 00:21:29;;;;;;;34.83;22.38;;;;;;;8.25;70.09;94825.78;5008409;28;20037;-77
2023/11/13 00:23:57;;;;;;;32.95;22.13;;;;;;;8.24;70.41;94822.28;5038511;28;20018;-77
2023/11/13 00:26:23;;;;;;;30.00;21.65;;;;;;;8.23;70.07;94815.25;5019044;28;20497;-77
2023/11/13 00:28:49;;;;;;;28.63;20.13;;;;;;;8.29;70.06;94809.28;5009414;28;20037;-77
2023/11/13 00:31:14;;;;;;;32.17;19.13;;;;;;;8.23;70.27;94815.25;5025605;28;20141;-76
2023/11/13 00:33:41;;;;;;;29.02;20.08;;;;;;;8.14;70.55;94814.28;5016242;28;20040;-76
2023/11/13 00:36:07;;;;;;;24.85;16.88;;;;;;;8.10;70.77;94817.13;4999044;28;20112;-77
2023/11/13 00:38:32;;;;;;;25.23;17.20;;;;;;;8.00;71.19;94818.09;5020144;28;20111;-77
2023/11/13 00:40:58;;;;;;;23.67;17.27;;;;;;;8.06;70.92;94821.13;5034119;28;20395;-76
2023/11/13 00:43:26;;;;;;;25.80;16.45;;;;;;;8.02;71.15;94821.19;5052596;28;20167;-76
2023/11/13 00:45:52;;;;;;;22.42;16.08;;;;;;;8.06;71.19;94821.13;5020538;28;20112;-75
2023/11/13 00:48:18;;;;;;;23.85;15.73;;;;;;;8.04;71.12;94818.81;5014938;28;20121;-76
2023/11/13 00:50:43;;;;;;;21.00;15.48;;;;;;;7.97;71.16;94808.78;5020627;28;20030;-77
2023/11/13 00:53:10;;;;;;;23.23;16.52;;;;;;;7.96;71.08;94806.44;5038221;28;20467;-78
2023/11/13 00:55:36;;;;;;;24.50;17.00;;;;;;;7.94;71.60;94795.94;5006534;28;20030;-76
2023/11/13 00:58:01;;;;;;;24.60;16.92;;;;;;;7.93;71.44;94802.59;5020992;28;20113;-76
2023/11/13 01:00:27;;;;;;;21.27;15.45;;;;;;;7.96;71.68;94803.72;5024748;28;20029;-76
2023/11/13 01:02:52;;;;;;;22.02;15.23;;;;;;;7.93;71.57;94807.31;5025758;28;20103;-77
2023/11/13 01:05:18;;;;;;;21.67;16.35;;;;;;;7.94;71.66;94809.63;5022928;28;20021;-76
2023/11/13 01:07:43;;;;;;;21.30;15.57;;;;;;;7.93;71.29;94804.56;5040231;28;20022;-76
2023/11/13 01:10:09;;;;;;;23.02;16.58;;;;;;;7.92;71.63;94809.28;5023039;28;20465;-76
2023/11/13 01:12:35;;;;;;;22.38;15.38;;;;;;;7.90;71.61;94810.88;5040095;28;20163;-77
2023/11/13 01:15:02;;;;;;;21.30;15.25;;;;;;;7.91;71.73;94805.00;5011287;28;20164;-76
2023/11/13 01:17:27;;;;;;;22.95;16.38;;;;;;;8.00;71.37;94807.16;5022445;28;20537;-76
2023/11/13 01:19:53;;;;;;;19.02;14.68;;;;;;;7.99;71.47;94808.34;5025322;28;20045;-75
2023/11/13 01:22:18;;;;;;;20.00;14.63;;;;;;;7.96;71.23;94798.25;5023226;28;20117;-75
2023/11/13 01:24:43;;;;;;;22.35;15.80;;;;;;;7.95;71.44;94808.41;5015923;28;20026;-75
2023/11/13 01:27:09;;;;;;;25.05;16.70;;;;;;;7.94;71.21;94800.63;5024534;28;20029;-75
2023/11/13 01:29:34;;;;;;;22.33;14.70;;;;;;;7.93;71.09;94797.13;5018155;28;20092;-75
2023/11/13 01:32:00;;;;;;;20.58;15.13;;;;;;;7.93;71.27;94802.59;5038578;28;20029;-76
2023/11/13 01:34:26;;;;;;;20.92;14.77;;;;;;;7.92;71.16;94789.34;5017981;28;20112;-77
2023/11/13 01:36:51;;;;;;;20.17;14.23;;;;;;;7.94;70.97;94789.69;5030151;28;20026;-76
2023/11/13 01:39:17;;;;;;;20.23;13.55;;;;;;;7.99;70.89;94789.97;5021763;28;20021;-77
2023/11/13 01:41:43;;;;;;;19.95;14.07;;;;;;;7.99;70.49;94792.69;5012176;28;20038;-78
2023/11/13 01:44:09;;;;;;;19.48;14.38;;;;;;;7.98;70.56;94793.91;5041430;28;20029;-77
2023/11/13 01:46:35;;;;;;;23.30;14.93;;;;;;;7.97;70.87;94788.81;5042100;28;20099;-77
2023/11/13 01:49:00;;;;;;;20.65;14.57;;;;;;;7.99;71.13;94797.41;5011449;28;20037;-76
2023/11/13 01:51:26;;;;;;;19.50;15.43;;;;;;;8.02;70.94;94791.06;5017686;28;20084;-77
2023/11/13 01:53:53;;;;;;;22.15;15.18;;;;;;;7.96;70.98;94792.75;5030555;28;20033;-77
2023/11/13 01:56:20;;;;;;;22.02;15.48;;;;;;;8.00;71.28;94793.47;5028830;28;20026;-77
2023/11/13 01:58:46;;;;;;;22.52;14.93;;;;;;;8.02;70.85;94787.56;5020587;28;21982;-76
2023/11/13 02:01:11;;;;;;;20.95;14.35;;;;;;;8.06;70.81;94785.53;5040873;28;20492;-78
2023/11/13 02:03:41;;;;;;;19.75;14.75;;;;;;;8.04;70.78;94788.69;5024992;28;20025;-77
2023/11/13 02:06:07;;;;;;;21.30;13.82;;;;;;;8.02;70.43;94782.84;5041250;28;20065;-75
2023/11/13 02:08:32;;;;;;;20.20;14.27;;;;;;;8.09;70.65;94790.16;5022751;28;20504;-77
2023/11/13 02:11:01;;;;;;;18.73;14.20;;;;;;;8.13;70.43;94772.44;5012975;28;20034;-77
2023/11/13 02:13:27;;;;;;;19.20;11.57;;;;;;;8.12;69.59;94770.91;5036975;28;20052;-78
2023/11/13 02:15:52;;;;;;;21.63;14.02;;;;;;;8.11;69.49;94776.81;5016910;28;20041;-77
2023/11/13 02:18:18;;;;;;;20.42;14.23;;;;;;;8.17;69.43;94780.59;5010727;28;20037;-77
2023/11/13 02:20:44;;;;;;;19.38;13.73;;;;;;;7.98;69.80;94768.50;5004504;28;20038;-75
2023/11/13 02:23:13;;;;;;;19.30;14.20;;;;;;;8.06;69.76;94777.31;5012445;28;20512;-75
2023/11/13 02:25:40;;;;;;;19.67;12.90;;;;;;;8.02;69.34;94780.13;5004877;28;20030;-77
2023/11/13 02:28:06;;;;;;;17.75;11.80;;;;;;;8.06;68.84;94780.81;5037608;28;20033;-75
2023/11/13 02:30:35;;;;;;;12.98;9.93;;;;;;;7.99;68.47;94791.94;5016023;28;20034;-77
2023/11/13 02:33:00;;;;;;;12.65;8.55;;;;;;;7.98;68.19;94793.91;5043859;28;20114;-79
2023/11/13 02:35:26;;;;;;;13.48;9.60;;;;;;;7.93;68.28;94791.66;5012250;28;20517;-77
2023/11/13 02:37:51;;;;;;;17.92;11.13;;;;;;;7.92;68.33;94789.34;5013362;28;20025;-78
2023/11/13 02:40:17;;;;;;;19.00;13.45;;;;;;;7.82;69.17;94791.09;5034878;28;20513;-76
2023/11/13 02:42:42;;;;;;;23.63;15.45;;;;;;;7.88;69.60;94794.13;5033443;28;20025;-77
2023/11/13 02:45:08;;;;;;;22.23;15.35;;;;;;;7.83;70.02;94792.66;5027350;28;20514;-76
2023/11/13 02:47:34;;;;;;;21.67;14.98;;;;;;;7.82;70.21;94788.38;5019314;28;20030;-77
2023/11/13 02:50:00;;;;;;;21.35;15.80;;;;;;;7.84;70.13;94793.41;5060418;28;20056;-77
2023/11/13 02:52:26;;;;;;;21.05;14.95;;;;;;;7.90;70.12;94797.97;5002183;28;20037;-77
2023/11/13 02:54:52;;;;;;;20.08;14.45;;;;;;;7.93;70.24;94797.13;5058422;28;20029;-77
2023/11/13 02:57:21;;;;;;;19.67;14.40;;;;;;;7.96;70.75;94798.25;5015763;28;20050;-77
2023/11/13 02:59:46;;;;;;;20.98;13.63;;;;;;;8.02;70.85;94796.53;5011447;28;20028;-77
2023/11/13 03:02:12;;;;;;;21.55;14.13;;;;;;;7.97;71.01;94799.78;5042938;28;20038;-77
2023/11/13 03:04:38;;;;;;;21.90;14.68;;;;;;;7.95;71.46;94802.94;5018884;28;20026;-76
2023/11/13 03:07:04;;;;;;;21.98;15.38;;;;;;;7.94;71.52;94797.91;5043313;28;20115;-76
2023/11/13 03:09:29;;;;;;;22.35;15.20;;;;;;;7.97;71.68;94806.06;5023242;28;20096;-76
2023/11/13 03:11:55;;;;;;;22.10;15.82;;;;;;;7.94;71.70;94801.41;5020325;28;20038;-75
2023/11/13 03:14:20;;;;;;;24.60;15.45;;;;;;;7.95;71.44;94805.69;5026700;28;20033;-76
2023/11/13 03:16:45;;;;;;;24.63;16.40;;;;;;;7.90;71.68;94808.91;5025887;28;20039;-76
2023/11/13 03:19:11;;;;;;;23.42;15.93;;;;;;;7.89;71.65;94815.59;5029011;28;20021;-77
2023/11/13 03:21:37;;;;;;;25.50;15.68;;;;;;;7.91;71.46;94809.69;5022941;28;20060;-76
2023/11/13 03:24:02;;;;;;;21.65;14.40;;;;;;;7.91;71.28;94805.00;5012324;28;20065;-76
2023/11/13 03:26:29;;;;;;;19.27;13.95;;;;;;;7.97;70.91;94818.94;5017685;28;20029;-77
2023/11/13 03:28:55;;;;;;;19.67;13.35;;;;;;;7.91;71.24;94826.91;5027824;28;20021;-76
2023/11/13 03:31:20;;;;;;;21.05;14.32;;;;;;;7.93;71.24;94829.22;5027651;28;20025;-77
2023/11/13 03:33:46;;;;;;;21.00;13.93;;;;;;;7.92;71.29;94827.66;5039553;28;20060;-76
2023/11/13 03:36:12;;;;;;;21.25;14.38;;;;;;;7.98;71.00;94826.75;5022372;28;20034;-76
2023/11/13 03:38:38;;;;;;;21.67;14.70;;;;;;;7.94;71.18;94831.50;5012555;28;20025;-76
2023/11/13 03:41:03;;;;;;;22.38;15.40;;;;;;;7.94;71.28;94825.28;5039085;28;20037;-75
2023/11/13 03:43:29;;;;;;;26.27;17.70;;;;;;;7.87;71.43;94837.16;5017993;28;20034;-75
2023/11/13 03:45:54;;;;;;;25.98;17.20;;;;;;;7.83;71.56;94832.94;5008015;28;20029;-75
2023/11/13 03:48:20;;;;;;;27.80;18.50;;;;;;;7.84;71.67;94839.94;5021795;28;20029;-76
2023/11/13 03:50:45;;;;;;;31.90;19.38;;;;;;;7.80;71.67;94853.72;5026161;28;20044;-76
2023/11/13 03:53:10;;;;;;;28.70;17.88;;;;;;;7.69;72.06;94832.03;5024775;28;20715;-75
2023/11/13 03:55:36;;;;;;;29.90;18.05;;;;;;;7.73;71.70;94829.19;5039266;28;20025;-76
2023/11/13 03:58:02;;;;;;;32.53;17.98;;;;;;;7.75;71.57;94837.78;5008752;28;20092;-76
2023/11/13 04:00:27;;;;;;;29.70;17.58;;;;;;;7.73;71.78;94834.66;5023686;28;20440;-77
2023/11/13 04:02:53;;;;;;;27.00;17.83;;;;;;;7.66;72.07;94837.56;5026376;28;20569;-77
2023/11/13 04:05:18;;;;;;;29.58;17.38;;;;;;;7.68;72.04;94829.69;5024970;28;20033;-77
2023/11/13 04:07:44;;;;;;;27.77;17.65;;;;;;;7.71;71.99;94828.84;5042797;28;20076;-77
2023/11/13 04:10:14;;;;;;;25.83;16.95;;;;;;;7.66;72.08;94829.34;5019207;28;20482;-77
2023/11/13 04:12:41;;;;;;;27.27;16.92;;;;;;;7.65;71.86;94828.56;5015197;28;20042;-76
2023/11/13 04:15:08;;;;;;;25.02;17.58;;;;;;;7.66;71.78;94816.44;5007692;28;20056;-76
2023/11/13 04:17:33;;;;;;;25.30;17.05;;;;;;;7.65;72.29;94822.34;5012114;28;20120;-77
2023/11/13 04:19:59;;;;;;;25.98;16.88;;;;;;;7.59;72.09;94816.56;5022499;28;20133;-77
2023/11/13 04:22:26;;;;;;;26.70;16.25;;;;;;;7.68;72.01;94833.22;5009248;28;20435;-76
2023/11/13 04:24:53;;;;;;;25.08;16.77;;;;;;;7.66;72.08;94832.84;5005255;28;20018;-77
2023/11/13 04:27:18;;;;;;;26.33;17.13;;;;;;;7.67;72.08;94837.13;5005562;28;20037;-76
2023/11/13 04:29:44;;;;;;;27.75;17.50;;;;;;;7.69;71.68;94845.69;5008578;28;20091;-76
2023/11/13 04:32:09;;;;;;;28.50;16.85;;;;;;;7.71;71.94;94840.56;5038058;28;20120;-75
2023/11/13 04:34:34;;;;;;;25.58;17.00;;;;;;;7.73;71.53;94834.66;5018649;28;20487;-77
2023/11/13 04:37:00;;;;;;;24.85;17.75;;;;;;;7.70;71.59;94836.28;5006205;28;20034;-78
2023/11/13 04:39:25;;;;;;;29.25;17.27;;;;;;;7.71;71.85;94848.78;5021641;28;20187;-77
2023/11/13 04:41:51;;;;;;;24.58;16.30;;;;;;;7.70;71.49;94841.78;5015770;28;20538;-78
2023/11/13 04:44:16;;;;;;;25.40;16.92;;;;;;;7.68;71.80;94841.44;5028220;28;20138;-77
2023/11/13 04:46:41;;;;;;;24.63;18.25;;;;;;;7.70;71.77;94858.19;5042020;28;20471;-77
2023/11/13 04:49:07;;;;;;;25.95;16.90;;;;;;;7.71;72.01;94873.41;5015504;28;20026;-77
2023/11/13 04:51:32;;;;;;;28.80;17.30;;;;;;;7.68;71.86;94873.47;5044275;28;20546;-77
2023/11/13 04:53:59;;;;;;;31.00;18.60;;;;;;;7.66;71.93;94886.78;5014472;28;20528;-77
2023/11/13 04:56:24;;;;;;;29.75;17.60;;;;;;;7.68;71.93;94892.63;5028781;28;20036;-77
2023/11/13 04:58:49;;;;;;;31.52;19.20;;;;;;;7.65;71.99;94886.03;5038813;28;20436;-77
2023/11/13 05:01:17;;;;;;;29.15;18.98;;;;;;;7.67;72.04;94888.34;5023138;28;20087;-78
2023/11/13 05:03:42;;;;;;;30.27;18.92;;;;;;;7.65;71.96;94894.25;5025259;28;20112;-78
2023/11/13 05:06:15;;;;;;;33.42;18.90;;;;;;;7.69;71.87;94900.44;5023284;28;20193;-79
2023/11/13 05:08:41;;;;;;;30.30;18.30;;;;;;;7.66;71.86;94903.97;5017359;28;20057;-76
2023/11/13 05:11:08;;;;;;;30.35;18.95;;;;;;;7.68;71.86;94906.28;5024173;28;20052;-77
2023/11/13 05:13:34;;;;;;;31.92;19.40;;;;;;;7.65;71.98;94909.88;5037007;28;20041;-75
2023/11/13 05:16:00;;;;;;;28.58;17.90;;;;;;;7.68;71.79;94912.56;5038389;28;20076;-77
2023/11/13 05:18:25;;;;;;;32.03;20.98;;;;;;;7.70;71.91;94925.81;5013006;28;20029;-77
2023/11/13 05:20:51;;;;;;;35.70;22.70;;;;;;;7.70;72.00;94926.59;5039860;28;20723;-77
2023/11/13 05:23:16;;;;;;;29.17;18.52;;;;;;;7.72;71.88;94929.69;5024302;28;20026;-77
2023/11/13 05:25:43;;;;;;;34.60;18.58;;;;;;;7.79;71.96;94938.94;5010424;28;20034;-76
2023/11/13 05:28:08;;;;;;;28.83;17.35;;;;;;;7.77;71.86;94944.84;5017563;28;20041;-75
2023/11/13 05:30:39;;;;;;;30.27;18.23;;;;;;;7.79;71.66;94944.41;5019781;28;20026;-75
2023/11/13 05:33:05;;;;;;;27.75;17.50;;;;;;;7.76;71.83;94950.75;5012618;28;20175;-76
2023/11/13 05:35:30;;;;;;;31.73;19.02;;;;;;;7.76;71.72;94959.72;5023435;28;20100;-75
2023/11/13 05:37:57;;;;;;;33.58;19.15;;;;;;;7.76;72.00;94965.19;5015668;28;20101;-76
2023/11/13 05:40:24;;;;;;;32.97;20.27;;;;;;;7.78;71.99;94962.03;5014621;28;20416;-77
2023/11/13 05:42:49;;;;;;;31.23;18.58;;;;;;;7.80;72.01;94965.13;5024026;28;20511;-77
2023/11/13 05:45:15;;;;;;;32.53;18.92;;;;;;;7.82;71.85;94974.47;5034279;28;20119;-74
2023/11/13 05:47:41;;;;;;;31.40;18.73;;;;;;;7.82;71.88;94968.22;5036998;28;20417;-79
2023/11/13 05:50:08;;;;;;;35.67;20.50;;;;;;;7.87;71.57;94956.81;5040869;28;20685;-79
2023/11/13 05:52:34;;;;;;;34.10;19.08;;;;;;;7.88;71.60;94958.34;5013276;28;20205;-79
2023/11/13 05:54:59;;;;;;;35.30;20.63;;;;;;;7.88;71.61;94963.81;5006826;28;20034;-78
2023/11/13 05:57:24;;;;;;;36.67;21.40;;;;;;;7.88;71.39;94963.81;5006715;28;20034;-79
2023/11/13 05:59:50;;;;;;;37.83;22.17;;;;;;;7.84;71.23;94960.34;5024354;28;20019;-79
2023/11/13 06:02:17;;;;;;;36.28;21.88;;;;;;;7.80;71.14;94965.91;5024699;28;20026;-78
2023/11/13 06:04:48;;;;;;;37.45;23.02;;;;;;;7.80;71.33;94960.44;5022678;28;20464;-79
2023/11/13 06:07:13;;;;;;;32.33;21.02;;;;;;;7.80;71.03;94963.19;5011861;28;20520;-79
2023/11/13 06:09:39;;;;;;;32.20;21.70;;;;;;;7.78;71.36;94964.78;5026078;28;20025;-75
2023/11/13 06:12:05;;;;;;;30.02;19.80;;;;;;;7.80;71.16;94968.66;5014940;28;20040;-78
2023/11/13 06:14:31;;;;;;;31.05;21.13;;;;;;;7.79;71.06;94974.53;5009026;28;20370;-77
2023/11/13 06:16:57;;;;;;;29.15;20.02;;;;;;;7.88;70.70;94969.28;5015453;28;20107;-77
2023/11/13 06:19:23;;;;;;;33.95;21.77;;;;;;;7.87;70.68;94971.25;5025110;28;20422;-78
2023/11/13 06:21:49;;;;;;;33.88;21.13;;;;;;;7.90;70.48;94978.63;5037892;28;20508;-78
2023/11/13 06:24:14;;;;;;;33.60;21.30;;;;;;;7.83;70.40;94972.50;5040942;28;20076;-77
2023/11/13 06:26:40;;;;;;;29.67;20.08;;;;;;;7.88;70.59;94974.75;5015589;28;20335;-76
2023/11/13 06:29:06;;;;;;;29.98;18.88;;;;;;;7.87;70.61;94965.00;5027658;28;20074;-77
2023/11/13 06:31:31;;;;;;;29.55;18.52;;;;;;;7.89;70.57;94968.09;5025531;28;20377;-77
2023/11/13 06:33:56;;;;;;;32.22;18.75;;;;;;;7.99;70.10;94967.91;5010815;28;20041;-78
2023/11/13 06:36:22;;;;;;;24.48;17.13;;;;;;;8.03;69.93;94965.09;5042965;28;20036;-77
2023/11/13 06:38:47;;;;;;;25.60;16.80;;;;;;;8.13;69.83;94963.34;5056702;28;20112;-77
2023/11/13 06:41:13;;;;;;;27.77;16.67;;;;;;;8.25;69.50;94970.94;5046492;28;20030;-77
2023/11/13 06:43:38;;;;;;;22.77;15.82;;;;;;;8.41;69.25;94973.00;5039795;28;20121;-77
2023/11/13 06:46:04;;;;;;;22.83;15.73;;;;;;;8.54;68.88;94970.41;5037621;28;20396;-77
2023/11/13 06:48:29;;;;;;;26.80;15.70;;;;;;;8.67;68.48;94963.88;5063740;28;20028;-77
2023/11/13 06:50:55;;;;;;;24.33;16.95;;;;;;;8.80;68.05;94971.44;5048614;28;20029;-77
2023/11/13 06:53:20;;;;;;;23.48;14.73;;;;;;;8.94;67.58;94982.84;5028174;28;20029;-77
2023/11/13 06:55:47;;;;;;;23.88;15.82;;;;;;;9.07;67.20;94969.28;5028124;28;20075;-78
2023/11/13 06:58:13;;;;;;;25.40;15.43;;;;;;;9.24;66.53;94959.88;5043354;28;20412;-77
2023/11/13 07:00:39;;;;;;;23.20;15.57;;;;;;;9.38;66.17;94960.72;5028951;28;20032;-77
2023/11/13 07:03:04;;;;;;;22.33;14.88;;;;;;;9.48;65.53;94951.47;5028345;28;20199;-77
2023/11/13 07:05:33;;;;;;;23.80;15.52;;;;;;;9.55;65.13;94949.31;5043807;28;20025;-76
2023/11/13 07:07:59;;;;;;;22.05;14.68;;;;;;;9.65;64.87;94946.75;5043584;28;20022;-76
2023/11/13 07:10:26;;;;;;;22.65;15.13;;;;;;;9.79;64.25;94951.88;5043387;28;20021;-78
2023/11/13 07:12:52;;;;;;;22.85;15.27;;;;;;;9.92;63.63;94947.22;5043827;28;20033;-76
2023/11/13 07:15:19;;;;;;;21.02;14.57;;;;;;;10.07;63.34;94937.41;5027819;28;20036;-77
2023/11/13 07:17:45;;;;;;;20.55;16.42;;;;;;;10.21;63.26;94936.25;5028706;28;20073;-76
2023/11/13 07:20:13;;;;;;;22.55;15.95;;;;;;;10.42;62.78;94937.66;5042956;28;20120;-77
2023/11/13 07:22:39;;;;;;;19.95;15.57;;;;;;;10.53;62.20;94940.88;5026601;28;20021;-78
2023/11/13 07:25:06;;;;;;;23.27;15.77;;;;;;;10.66;61.91;94946.38;5028284;28;20045;-77
2023/11/13 07:27:31;;;;;;;22.98;15.43;;;;;;;10.80;61.27;94961.72;5046316;28;20030;-80
2023/11/13 07:29:57;;;;;;;22.98;15.88;;;;;;;10.93;60.54;94965.25;5029184;28;20026;-86
2023/11/13 07:32:25;;;;;;;22.52;15.57;;;;;;;10.99;59.57;94952.50;5042170;28;20121;-77
2023/11/13 07:34:53;;;;;;;24.08;17.33;;;;;;;11.06;59.42;94966.03;5027889;28;20044;-79
2023/11/13 07:37:19;;;;;;;21.35;15.27;;;;;;;11.15;58.94;94962.63;5007777;28;20099;-77
2023/11/13 07:39:48;;;;;;;25.60;16.30;;;;;;;11.58;58.27;94969.53;5022280;28;20044;-77
2023/11/13 07:42:13;;;;;;;24.10;16.08;;;;;;;12.15;57.31;94964.91;5025319;28;20109;-77
2023/11/13 07:44:45;;;;;;;22.83;16.02;;;;;;;12.70;55.20;94954.31;5020091;28;20110;-76
2023/11/13 07:47:11;;;;;;;24.23;16.35;;;;;;;13.42;53.45;94961.47;5026591;28;20084;-76
2023/11/13 07:49:36;;;;;;;24.30;17.33;;;;;;;14.52;51.22;94958.13;5039332;28;20455;-76
2023/11/13 07:52:04;;;;;;;27.50;17.77;;;;;;;15.86;47.58;94955.88;5039815;28;20065;-75
2023/11/13 07:54:29;;;;;;;25.65;17.70;;;;;;;17.08;44.31;94969.09;5038771;28;20057;-76
2023/11/13 07:56:54;;;;;;;21.80;17.45;;;;;;;18.08;42.49;94969.19;5009335;28;20115;-77
2023/11/13 07:59:20;;;;;;;27.30;21.20;;;;;;;18.96;40.06;94979.09;5008712;28;20037;-76
2023/11/13 08:01:45;;;;;;;28.27;25.10;;;;;;;19.72;37.88;94970.41;5007723;28;20030;-77
2023/11/13 08:04:11;;;;;;;27.83;22.10;;;;;;;20.43;36.58;94963.72;5039676;28;20018;-76
2023/11/13 08:06:37;;;;;;;21.85;18.25;;;;;;;21.17;35.31;94959.13;5008645;28;20072;-76
2023/11/13 08:09:07;;;;;;;20.77;18.45;;;;;;;21.94;34.25;94966.00;5014334;28;20198;-75
2023/11/13 08:11:34;;;;;;;20.88;17.73;;;;;;;22.63;32.68;94961.78;5007629;28;20120;-77
2023/11/13 08:14:00;;;;;;;22.00;17.92;;;;;;;23.21;31.47;94959.69;5008226;28;20033;-78
2023/11/13 08:16:27;;;;;;;19.50;16.40;;;;;;;23.93;30.84;94962.50;5027376;28;20044;-77
2023/11/13 08:18:52;;;;;;;16.23;14.30;;;;;;;24.53;29.72;94960.34;5047228;28;20103;-77
2023/11/13 08:21:18;;;;;;;17.42;14.32;;;;;;;25.02;29.22;94951.81;5035770;28;20445;-77
2023/11/13 08:23:43;;;;;;;14.98;13.20;;;;;;;25.52;27.85;94958.78;5025729;28;20045;-77
2023/11/13 08:26:09;;;;;;;19.67;15.25;;;;;;;26.04;26.85;94951.78;5027321;28;20396;-77
2023/11/13 08:28:35;;;;;;;18.27;15.57;;;;;;;26.68;26.11;94953.69;5025965;28;20029;-77
2023/11/13 08:31:01;;;;;;;17.23;14.15;;;;;;;26.89;25.90;94953.75;5014400;28;20401;-76
2023/11/13 08:33:26;;;;;;;15.77;13.77;;;;;;;27.38;25.18;94950.41;5020872;28;20029;-77
2023/11/13 08:35:52;;;;;;;15.38;13.60;;;;;;;27.47;24.91;94944.25;5023808;28;20025;-76
2023/11/13 08:38:17;;;;;;;17.83;14.13;;;;;;;28.04;23.99;94945.22;5033727;28;20028;-76
2023/11/13 08:40:43;;;;;;;15.32;13.40;;;;;;;28.65;23.36;94950.53;5022542;28;20033;-76
2023/11/13 08:43:10;;;;;;;15.35;13.75;;;;;;;28.99;22.83;94944.69;5033827;28;20044;-77
2023/11/13 08:45:37;;;;;;;15.15;12.45;;;;;;;29.33;22.14;94949.34;5007848;28;20029;-77
2023/11/13 08:48:03;;;;;;;15.38;13.50;;;;;;;29.62;22.11;94953.59;5038694;28;20068;-77
2023/11/13 08:50:30;;;;;;;16.60;13.65;;;;;;;30.25;21.66;94944.59;5004898;28;20049;-77
2023/11/13 08:52:57;;;;;;;16.10;13.07;;;;;;;30.41;21.15;94956.66;5007375;28;20033;-76
2023/11/13 08:55:23;;;;;;;18.15;13.07;;;;;;;30.15;21.22;94947.22;5037919;28;20036;-77
2023/11/13 08:57:49;;;;;;;14.88;12.68;;;;;;;30.64;20.47;94948.13;5005693;28;20481;-77
2023/11/13 09:00:19;;;;;;;15.27;12.82;;;;;;;30.96;20.40;94952.38;5038375;28;20030;-77
2023/11/13 09:02:53;;;;;;;16.63;13.05;;;;;;;31.23;20.38;94961.19;5005462;28;20292;-77
2023/11/13 09:05:20;;;;;;;14.02;12.63;;;;;;;31.44;19.64;94956.75;5007419;28;20110;-77
2023/11/13 09:07:45;;;;;;;15.45;12.40;;;;;;;31.51;19.47;94958.03;5037992;28;20060;-77
2023/11/13 09:10:11;;;;;;;13.75;11.25;;;;;;;31.99;19.44;94972.91;5007193;28;20053;-77
2023/11/13 09:12:38;;;;;;;13.73;11.00;;;;;;;32.58;18.68;94965.06;5006036;28;20065;-77
2023/11/13 09:15:11;;;;;;;13.40;10.70;;;;;;;32.55;18.89;94960.53;5006823;28;20030;-77
2023/11/13 09:17:48;;;;;;;13.90;10.90;;;;;;;32.42;18.61;94956.66;5006488;28;20369;-77
2023/11/13 09:20:20;;;;;;;14.65;11.27;;;;;;;32.56;18.72;94965.63;5004087;28;20080;-77
2023/11/13 09:22:46;;;;;;;12.65;10.38;;;;;;;32.87;18.79;94974.63;5005652;28;20034;-77
2023/11/13 09:25:14;;;;;;;10.65;9.55;;;;;;;33.21;18.16;94973.13;5005654;28;20105;-77
2023/11/13 09:27:42;;;;;;;10.20;9.00;;;;;;;33.53;17.14;94975.03;5005559;28;20034;-76
2023/11/13 09:30:10;;;;;;;9.43;8.43;;;;;;;33.40;17.30;94979.00;5006313;28;20026;-76
2023/11/13 09:32:38;;;;;;;10.30;8.60;;;;;;;33.73;17.27;94975.91;5037633;28;20489;-76
2023/11/13 09:35:05;;;;;;;8.43;7.55;;;;;;;34.30;16.82;94986.09;5037584;28;20057;-77
2023/11/13 09:37:31;;;;;;;8.57;7.03;;;;;;;34.93;16.37;94979.53;5006042;28;20548;-77
2023/11/13 09:39:56;;;;;;;8.88;7.18;;;;;;;35.43;15.67;94987.50;5006021;28;20113;-77
2023/11/13 09:42:22;;;;;;;8.40;6.90;;;;;;;35.26;16.09;94990.50;5005273;28;20065;-77
2023/11/13 09:44:48;;;;;;;7.85;6.15;;;;;;;35.70;15.75;94989.44;5038508;28;20022;-77
2023/11/13 09:47:16;;;;;;;8.52;7.72;;;;;;;35.74;15.11;95001.91;5037060;28;20026;-77
2023/11/13 09:49:49;;;;;;;10.57;6.68;;;;;;;35.70;15.74;94990.19;5006723;28;20022;-77
2023/11/13 09:52:15;;;;;;;7.57;6.47;;;;;;;35.88;15.32;94991.47;5004450;28;20562;-76
2023/11/13 09:54:43;;;;;;;7.20;5.85;;;;;;;35.88;15.79;94988.63;5037511;28;20029;-77
2023/11/13 09:57:13;;;;;;;6.75;6.03;;;;;;;36.74;14.54;94999.59;5037609;28;20033;-77
2023/11/13 09:59:39;;;;;;;6.35;5.28;;;;;;;36.79;14.57;94987.06;5004522;28;20026;-77
2023/11/13 10:02:08;;;;;;;7.43;5.38;;;;;;;36.85;14.15;94978.88;5006731;28;20022;-77
2023/11/13 10:04:34;;;;;;;5.22;3.95;;;;;;;36.96;14.47;94978.22;5036305;28;20081;-76
2023/11/13 10:07:02;;;;;;;5.60;4.03;;;;;;;37.08;13.80;94978.28;5037897;28;20034;-76
2023/11/13 10:09:30;;;;;;;4.90;3.80;;;;;;;37.15;14.06;94974.47;5036719;28;20149;-77
2023/11/13 10:12:00;;;;;;;5.03;3.30;;;;;;;37.52;13.68;94968.28;5005561;28;20113;-77
2023/11/13 10:14:26;;;;;;;4.93;3.42;;;;;;;37.96;13.13;94979.75;5037487;28;20033;-76
2023/11/13 10:17:00;;;;;;;5.25;3.38;;;;;;;38.46;13.09;94974.97;5005724;28;20117;-76
2023/11/13 10:19:26;;;;;;;5.40;3.40;;;;;;;38.58;12.72;94967.09;5006128;28;20050;-77
2023/11/13 10:21:51;;;;;;;5.78;3.50;;;;;;;39.11;12.77;94952.25;5003773;28;20408;-77
2023/11/13 10:24:24;;;;;;;5.60;3.25;;;;;;;39.35;12.54;94945.09;5005884;28;20068;-77
2023/11/13 10:26:53;;;;;;;5.78;4.30;;;;;;;39.90;11.98;94939.53;5005796;28;20389;-77
2023/11/13 10:29:30;;;;;;;4.35;3.22;;;;;;;39.86;11.78;94932.81;5036929;28;20030;-76
2023/11/13 10:32:03;;;;;;;4.75;3.10;;;;;;;40.30;11.67;94941.00;5006434;28;20041;-76
2023/11/13 10:34:43;;;;;;;5.38;3.60;;;;;;;40.64;11.41;94938.50;5036309;28;20030;-77
2023/11/13 10:37:10;;;;;;;3.92;3.28;;;;;;;41.09;10.83;94943.69;5004883;28;20022;-76
2023/11/13 10:39:39;;;;;;;5.28;3.90;;;;;;;41.56;10.89;94940.25;5037252;28;20033;-77
2023/11/13 10:42:14;;;;;;;6.38;3.58;;;;;;;41.82;10.32;94938.66;5005605;28;20030;-77
2023/11/13 10:44:39;;;;;;;3.92;2.97;;;;;;;41.85;10.29;94943.13;5005874;28;20029;-77
2023/11/13 10:47:20;;;;;;;4.68;3.47;;;;;;;42.13;10.27;94949.50;5004975;28;20045;-77
2023/11/13 10:49:48;;;;;;;5.17;2.93;;;;;;;42.69;9.72;94956.41;5005042;28;20037;-77
2023/11/13 10:52:16;;;;;;;3.38;2.30;;;;;;;42.58;9.65;94954.47;5008818;28;20029;-77
2023/11/13 10:54:46;;;;;;;3.63;2.58;;;;;;;42.83;9.62;94950.50;5040537;28;20083;-77
2023/11/13 10:57:14;;;;;;;4.28;3.17;;;;;;;42.81;9.40;94955.44;5009341;28;20049;-76
2023/11/13 10:59:39;;;;;;;4.22;2.60;;;;;;;43.36;8.98;94949.13;5008690;28;20025;-77
2023/11/13 11:02:10;;;;;;;3.90;2.75;;;;;;;43.76;9.03;94955.88;5009659;28;20030;-77
2023/11/13 11:04:39;;;;;;;4.23;2.43;;;;;;;43.21;8.91;94948.53;5039951;28;20018;-77
2023/11/13 11:07:05;;;;;;;4.65;2.30;;;;;;;43.35;8.89;94956.31;5040396;28;20088;-77
2023/11/13 11:09:32;;;;;;;3.67;2.13;;;;;;;42.90;9.24;94949.38;5008319;28;20049;-76
2023/11/13 11:11:58;;;;;;;3.30;1.80;;;;;;;41.92;9.74;94949.94;5040631;28;20033;-76
2023/11/13 11:14:34;;;;;;;3.60;1.80;;;;;;;39.76;10.95;94950.28;5008647;28;20036;-76
2023/11/13 11:17:07;;;;;;;2.55;1.67;;;;;;;37.29;12.68;94952.47;5040174;28;20061;-76
2023/11/13 11:19:40;;;;;;;2.55;1.70;;;;;;;35.68;13.48;94952.13;5040379;28;20136;-76
2023/11/13 11:22:34;;;;;;;2.88;1.65;;;;;;;34.98;14.80;94937.72;5039444;28;20052;-77